createdAt,value
2018-05-06T00:00:29.516Z,4.00
2018-05-06T00:02:55.899Z,4.00
2018-05-06T00:05:22.274Z,4.43
2018-05-06T00:07:48.585Z,4.27
2018-05-06T00:10:15.039Z,4.23
2018-05-06T00:12:41.387Z,3.47
2018-05-06T00:15:07.820Z,4.50
2018-05-06T00:17:34.085Z,4.00
2018-05-06T00:20:01.149Z,4.30
2018-05-06T00:22:27.481Z,4.00
2018-05-06T00:24:53.808Z,4.03
2018-05-06T00:27:20.132Z,4.90
2018-05-06T00:29:46.481Z,4.17
2018-05-06T00:32:12.788Z,3.90
2018-05-06T00:34:39.133Z,4.30
2018-05-06T00:37:05.493Z,4.03
2018-05-06T00:39:31.825Z,4.20
2018-05-06T00:41:58.165Z,3.87
2018-05-06T00:44:24.522Z,4.03
2018-05-06T00:46:50.866Z,4.53
2018-05-06T00:49:17.239Z,3.30
2018-05-06T00:51:43.571Z,2.77
2018-05-06T00:54:22.258Z,3.23
2018-05-06T00:59:49.344Z,3.37
2018-05-06T01:02:19.661Z,3.07
2018-05-06T01:04:48.100Z,3.33
2018-05-06T01:07:14.456Z,4.10
2018-05-06T01:09:40.836Z,4.63
2018-05-06T01:12:07.152Z,3.77
2018-05-06T01:14:33.482Z,3.77
2018-05-06T01:17:00.543Z,3.40
2018-05-06T01:19:29.981Z,3.00
2018-05-06T01:21:56.304Z,2.40
2018-05-06T01:24:32.966Z,3.53
2018-05-06T01:26:59.276Z,3.10
2018-05-06T01:29:26.391Z,3.47
2018-05-06T01:31:53.520Z,3.83
2018-05-06T01:34:19.860Z,3.73
2018-05-06T01:36:46.313Z,2.93
2018-05-06T01:39:12.692Z,3.20
2018-05-06T01:41:39.084Z,3.00
2018-05-06T01:44:06.161Z,3.70
2018-05-06T01:46:32.520Z,3.60
2018-05-06T01:48:58.869Z,3.30
2018-05-06T01:51:25.250Z,4.17
2018-05-06T01:53:51.591Z,3.30
2018-05-06T01:56:17.970Z,2.60
2018-05-06T01:58:44.351Z,2.50
2018-05-06T02:01:10.714Z,2.73
2018-05-06T02:03:37.078Z,2.73
2018-05-06T02:06:04.224Z,2.70
2018-05-06T02:08:30.565Z,2.10
2018-05-06T02:10:56.917Z,2.30
2018-05-06T02:13:23.230Z,2.97
2018-05-06T02:15:49.604Z,2.13
2018-05-06T02:18:16.022Z,3.37
2018-05-06T02:20:42.345Z,2.30
2018-05-06T02:23:09.441Z,3.20
2018-05-06T02:25:35.744Z,1.93
2018-05-06T02:28:02.089Z,2.93
2018-05-06T02:30:28.461Z,3.63
2018-05-06T02:32:54.786Z,3.20
2018-05-06T02:35:21.863Z,3.50
2018-05-06T02:37:48.981Z,2.37
2018-05-06T02:40:15.333Z,3.80
2018-05-06T02:42:43.143Z,2.10
2018-05-06T02:45:09.497Z,2.33
2018-05-06T02:47:35.785Z,3.70
2018-05-06T02:50:02.226Z,2.90
2018-05-06T02:52:28.581Z,2.10
2018-05-06T02:54:54.898Z,3.27
2018-05-06T02:57:21.222Z,2.90
2018-05-06T02:59:47.627Z,2.97
2018-05-06T03:02:13.961Z,2.30
2018-05-06T03:04:41.054Z,2.40
2018-05-06T03:07:07.471Z,2.80
2018-05-06T03:09:33.789Z,2.50
2018-05-06T03:12:00.077Z,3.40
2018-05-06T03:14:26.381Z,2.23
2018-05-06T03:16:52.709Z,2.50
2018-05-06T03:19:19.043Z,1.97
2018-05-06T03:21:45.399Z,3.00
2018-05-06T03:24:11.698Z,2.67
2018-05-06T03:26:38.763Z,2.83
2018-05-06T03:29:05.157Z,2.43
2018-05-06T03:31:31.473Z,2.27
2018-05-06T03:33:58.580Z,2.00
2018-05-06T03:36:24.869Z,2.10
2018-05-06T03:38:51.946Z,1.40
2018-05-06T03:41:19.227Z,2.20
2018-05-06T03:43:45.556Z,1.80
2018-05-06T03:46:11.843Z,2.00
2018-05-06T03:48:38.897Z,1.60
2018-05-06T03:51:05.937Z,1.90
2018-05-06T03:53:32.331Z,1.53
2018-05-06T03:59:28.637Z,1.23
2018-05-06T04:05:03.608Z,2.37
2018-05-06T04:07:29.969Z,2.13
2018-05-06T04:09:56.707Z,1.60
2018-05-06T04:12:23.049Z,2.57
2018-05-06T04:14:49.371Z,1.83
2018-05-06T04:17:15.682Z,2.13
2018-05-06T04:19:42.041Z,1.40
2018-05-06T04:22:08.399Z,2.00
2018-05-06T04:24:34.729Z,2.00
2018-05-06T04:27:01.060Z,1.50
2018-05-06T04:29:27.421Z,1.60
2018-05-06T04:31:53.789Z,1.40
2018-05-06T04:34:20.164Z,1.63
2018-05-06T04:36:46.495Z,2.03
2018-05-06T04:39:12.824Z,1.33
2018-05-06T04:41:39.150Z,1.77
2018-05-06T04:44:05.479Z,2.03
2018-05-06T04:46:31.875Z,1.77
2018-05-06T04:48:58.251Z,1.53
2018-05-06T04:51:24.565Z,1.90
2018-05-06T04:53:50.920Z,1.80
2018-05-06T04:56:17.239Z,2.50
2018-05-06T04:58:43.595Z,1.40
2018-05-06T05:01:10.006Z,1.70
2018-05-06T05:03:36.326Z,1.20
2018-05-06T05:06:02.669Z,1.77
2018-05-06T05:08:29.740Z,1.87
2018-05-06T05:10:56.088Z,1.50
2018-05-06T05:13:23.169Z,1.37
2018-05-06T05:15:55.076Z,2.03
2018-05-06T05:18:21.900Z,2.03
2018-05-06T05:20:48.348Z,1.40
2018-05-06T05:23:14.676Z,2.40
2018-05-06T05:25:41.037Z,1.60
2018-05-06T05:28:07.373Z,1.63
2018-05-06T05:30:33.729Z,1.97
2018-05-06T05:33:04.050Z,1.40
2018-05-06T05:35:30.392Z,2.50
2018-05-06T05:37:56.794Z,1.70
2018-05-06T05:40:23.267Z,1.90
2018-05-06T05:42:49.640Z,2.00
2018-05-06T05:45:15.987Z,1.77
2018-05-06T05:47:42.453Z,1.80
2018-05-06T05:50:08.765Z,1.67
2018-05-06T05:52:35.171Z,1.70
2018-05-06T05:55:01.474Z,1.67
2018-05-06T05:57:27.804Z,2.00
2018-05-06T05:59:54.198Z,2.43
2018-05-06T06:02:21.271Z,2.10
2018-05-06T06:04:47.605Z,2.43
2018-05-06T06:07:13.990Z,1.87
2018-05-06T06:09:41.129Z,2.20
2018-05-06T06:12:07.637Z,2.13
2018-05-06T06:14:34.006Z,1.50
2018-05-06T06:17:01.100Z,1.87
2018-05-06T06:19:27.477Z,1.90
2018-05-06T06:21:54.612Z,1.80
2018-05-06T06:24:21.119Z,1.97
2018-05-06T06:26:47.449Z,1.83
2018-05-06T06:29:13.862Z,2.27
2018-05-06T06:31:40.337Z,1.60
2018-05-06T06:34:06.715Z,2.30
2018-05-06T06:36:33.844Z,1.90
2018-05-06T06:39:00.409Z,1.97
2018-05-06T06:41:27.061Z,2.03
2018-05-06T06:43:54.670Z,1.90
2018-05-06T06:46:21.105Z,2.30
2018-05-06T06:48:47.477Z,2.00
2018-05-06T06:51:14.869Z,2.07
2018-05-06T06:53:41.378Z,2.17
2018-05-06T06:56:08.297Z,2.30
2018-05-06T06:58:34.725Z,2.10
2018-05-06T07:01:01.099Z,2.30
2018-05-06T07:03:31.394Z,1.97
2018-05-06T07:05:58.754Z,1.90
2018-05-06T07:08:25.426Z,2.07
2018-05-06T07:10:52.079Z,2.20
2018-05-06T07:13:20.854Z,2.00
2018-05-06T07:15:47.655Z,2.30
2018-05-06T07:18:14.921Z,2.57
2018-05-06T07:20:44.671Z,2.50
2018-05-06T07:23:11.154Z,2.03
2018-05-06T07:25:38.337Z,2.30
2018-05-06T07:28:05.060Z,2.43
2018-05-06T07:30:32.532Z,2.83
2018-05-06T07:33:00.442Z,2.53
2018-05-06T07:35:27.478Z,2.20
2018-05-06T07:37:58.353Z,2.13
2018-05-06T07:40:31.995Z,2.53
2018-05-06T07:42:58.869Z,2.67
2018-05-06T07:45:26.938Z,2.50
2018-05-06T07:47:54.346Z,2.83
2018-05-06T07:50:21.148Z,2.87
2018-05-06T07:52:47.844Z,2.73
2018-05-06T07:55:14.292Z,2.83
2018-05-06T07:57:41.373Z,2.60
2018-05-06T08:00:07.795Z,2.63
2018-05-06T08:02:34.144Z,2.40
2018-05-06T08:05:01.115Z,2.30
2018-05-06T08:07:27.584Z,3.27
2018-05-06T08:09:54.045Z,2.90
2018-05-06T08:12:21.349Z,2.57
2018-05-06T08:14:47.678Z,2.83
2018-05-06T08:17:14.572Z,2.90
2018-05-06T08:19:42.102Z,2.90
2018-05-06T08:22:08.817Z,3.13
2018-05-06T08:24:35.181Z,2.63
2018-05-06T08:27:01.685Z,2.47
2018-05-06T08:29:34.334Z,2.90
2018-05-06T08:32:02.314Z,2.87
2018-05-06T08:34:28.871Z,2.60
2018-05-06T08:36:55.563Z,2.40
2018-05-06T08:39:22.652Z,3.33
2018-05-06T08:41:54.741Z,2.43
2018-05-06T08:44:22.449Z,2.83
2018-05-06T08:46:52.947Z,2.80
2018-05-06T08:49:20.129Z,2.47
2018-05-06T08:51:46.471Z,2.50
2018-05-06T08:54:31.581Z,2.30
2018-05-06T08:56:58.362Z,2.67
2018-05-06T08:59:33.095Z,2.63
2018-05-06T09:01:59.712Z,2.80
2018-05-06T09:04:26.358Z,2.30
2018-05-06T09:06:53.435Z,3.00
2018-05-06T09:09:19.751Z,2.53
2018-05-06T09:11:46.243Z,2.97
2018-05-06T09:14:12.658Z,2.63
2018-05-06T09:16:39.029Z,3.30
2018-05-06T09:19:06.089Z,2.30
2018-05-06T09:21:34.613Z,2.80
2018-05-06T09:24:01.032Z,3.33
2018-05-06T09:29:19.217Z,2.63
2018-05-06T09:31:49.837Z,2.50
2018-05-06T09:34:22.355Z,2.50
2018-05-06T09:36:48.798Z,2.50
2018-05-06T09:39:15.156Z,2.53
2018-05-06T09:41:41.588Z,2.90
2018-05-06T09:44:08.695Z,2.70
2018-05-06T09:46:35.021Z,2.77
2018-05-06T09:49:01.362Z,2.97
2018-05-06T09:51:27.697Z,2.67
2018-05-06T09:53:54.050Z,2.00
2018-05-06T09:56:21.128Z,2.73
2018-05-06T09:58:47.448Z,2.77
2018-05-06T10:01:13.784Z,2.90
2018-05-06T10:03:40.822Z,2.83
2018-05-06T10:06:07.872Z,2.67
2018-05-06T10:08:34.936Z,2.47
2018-05-06T10:11:01.256Z,2.90
2018-05-06T10:13:28.318Z,2.30
2018-05-06T10:15:54.668Z,3.03
2018-05-06T10:18:20.949Z,2.50
2018-05-06T10:20:47.256Z,2.40
2018-05-06T10:23:13.544Z,2.60
2018-05-06T10:25:39.848Z,2.45
2018-05-06T10:28:06.228Z,3.20
2018-05-06T10:30:32.560Z,2.70
2018-05-06T10:32:58.838Z,1.90
2018-05-06T10:35:25.164Z,2.55
2018-05-06T10:37:51.447Z,3.22
2018-05-06T10:40:17.763Z,3.20
2018-05-06T10:42:44.061Z,2.33
2018-05-06T10:45:10.370Z,2.40
2018-05-06T10:47:36.701Z,2.83
2018-05-06T10:50:03.045Z,2.95
2018-05-06T10:52:30.417Z,2.33
2018-05-06T10:54:56.745Z,2.70
2018-05-06T10:57:23.043Z,2.58
2018-05-06T10:59:49.335Z,2.00
2018-05-06T11:02:15.629Z,3.03
2018-05-06T11:04:41.968Z,2.72
2018-05-06T11:07:08.272Z,2.47
2018-05-06T11:09:34.542Z,2.28
2018-05-06T11:12:02.336Z,2.83
2018-05-06T11:14:28.644Z,2.35
2018-05-06T11:16:55.660Z,2.37
2018-05-06T11:19:21.980Z,2.90
2018-05-06T11:21:48.308Z,2.80
2018-05-06T11:24:14.643Z,2.60
2018-05-06T11:26:40.941Z,2.47
2018-05-06T11:29:07.239Z,2.60
2018-05-06T11:31:34.318Z,3.17
2018-05-06T11:34:00.624Z,2.50
2018-05-06T11:36:27.648Z,2.55
2018-05-06T11:38:53.962Z,2.35
2018-05-06T11:41:20.268Z,2.35
2018-05-06T11:43:46.611Z,2.58
2018-05-06T11:46:12.944Z,2.35
2018-05-06T11:48:39.308Z,3.15
2018-05-06T11:51:07.056Z,2.25
2018-05-06T11:53:33.361Z,2.30
2018-05-06T11:55:59.685Z,2.60
2018-05-06T11:58:26.054Z,2.70
2018-05-06T12:00:52.393Z,1.90
2018-05-06T12:03:18.708Z,2.65
2018-05-06T12:05:45.017Z,2.60
2018-05-06T12:08:11.336Z,2.70
2018-05-06T12:10:37.656Z,2.47
2018-05-06T12:13:04.021Z,2.37
2018-05-06T12:15:30.350Z,2.17
2018-05-06T12:17:56.678Z,2.45
2018-05-06T12:20:23.001Z,2.40
2018-05-06T12:22:49.324Z,1.85
2018-05-06T12:25:15.827Z,2.30
2018-05-06T12:27:48.857Z,1.95
2018-05-06T12:30:15.163Z,1.95
2018-05-06T12:32:43.473Z,2.45
2018-05-06T12:35:09.838Z,1.95
2018-05-06T12:37:36.127Z,2.50
2018-05-06T12:40:02.498Z,2.15
2018-05-06T12:42:28.924Z,2.33
2018-05-06T12:44:55.232Z,2.20
2018-05-06T12:47:21.577Z,2.08
2018-05-06T12:49:48.018Z,2.25
2018-05-06T12:52:14.581Z,2.10
2018-05-06T12:54:41.653Z,2.20
2018-05-06T12:57:08.000Z,1.60
2018-05-06T12:59:34.361Z,2.00
2018-05-06T13:02:01.460Z,1.43
2018-05-06T13:04:27.829Z,1.53
2018-05-06T13:06:55.139Z,1.70
2018-05-06T13:09:22.202Z,2.27
2018-05-06T13:11:48.548Z,1.60
2018-05-06T13:14:18.793Z,1.90
2018-05-06T13:17:04.675Z,1.77
2018-05-06T13:19:43.083Z,1.90
2018-05-06T13:22:13.526Z,1.90
2018-05-06T13:24:50.692Z,1.53
2018-05-06T13:27:24.187Z,2.23
2018-05-06T13:29:51.654Z,1.90
2018-05-06T13:32:23.158Z,1.80
2018-05-06T13:34:50.262Z,1.67
2018-05-06T13:37:16.573Z,1.40
2018-05-06T13:39:48.865Z,1.70
2018-05-06T13:42:15.202Z,1.50
2018-05-06T13:45:06.385Z,1.50
2018-05-06T13:47:32.733Z,2.37
2018-05-06T13:49:59.120Z,1.60
2018-05-06T13:52:27.530Z,1.70
2018-05-06T13:54:53.824Z,1.70
2018-05-06T13:57:21.980Z,1.70
2018-05-06T13:59:49.074Z,1.80
2018-05-06T14:02:15.382Z,1.87
2018-05-06T14:04:41.708Z,2.23
2018-05-06T14:07:08.769Z,2.00
2018-05-06T14:09:35.079Z,1.93
2018-05-06T14:12:01.692Z,1.70
2018-05-06T14:14:28.124Z,1.93
2018-05-06T14:16:55.958Z,1.70
2018-05-06T14:19:37.804Z,1.83
2018-05-06T14:22:04.248Z,1.87
2018-05-06T14:24:43.889Z,1.80
2018-05-06T14:27:11.009Z,1.80
2018-05-06T14:29:57.187Z,1.90
2018-05-06T14:32:23.533Z,2.27
2018-05-06T14:34:50.684Z,2.00
2018-05-06T14:37:17.012Z,1.60
2018-05-06T14:39:43.324Z,1.40
2018-05-06T14:42:09.686Z,1.90
2018-05-06T14:44:36.196Z,1.63
2018-05-06T14:50:13.844Z,1.70
2018-05-06T14:52:40.198Z,1.70
2018-05-06T14:55:07.900Z,1.47
2018-05-06T14:57:34.208Z,1.17
2018-05-06T15:00:01.318Z,1.50
2018-05-06T15:02:27.736Z,1.70
2018-05-06T15:04:54.085Z,1.80
2018-05-06T15:07:21.208Z,1.80
2018-05-06T15:09:47.552Z,1.83
2018-05-06T15:12:13.932Z,1.67
2018-05-06T15:14:40.996Z,1.80
2018-05-06T15:17:07.425Z,1.43
2018-05-06T15:19:33.736Z,1.60
2018-05-06T15:22:00.832Z,1.73
2018-05-06T15:24:27.164Z,1.50
2018-05-06T15:26:55.568Z,1.50
2018-05-06T15:29:21.962Z,1.67
2018-05-06T15:31:48.299Z,1.33
2018-05-06T15:34:14.687Z,1.40
2018-05-06T15:36:43.044Z,1.03
2018-05-06T15:39:09.372Z,1.20
2018-05-06T15:41:35.729Z,1.10
2018-05-06T15:46:59.068Z,1.43
2018-05-06T15:49:25.398Z,1.40
2018-05-06T15:51:51.837Z,1.20
2018-05-06T15:54:18.188Z,1.23
2018-05-06T15:56:44.537Z,1.20
2018-05-06T15:59:10.836Z,1.30
2018-05-06T16:01:38.218Z,1.10
2018-05-06T16:04:11.037Z,1.37
2018-05-06T16:06:37.544Z,0.90
2018-05-06T16:09:04.721Z,1.07
2018-05-06T16:11:32.052Z,1.07
2018-05-06T16:13:59.149Z,1.07
2018-05-06T16:16:25.500Z,1.17
2018-05-06T16:18:51.923Z,0.90
2018-05-06T16:21:18.301Z,1.37
2018-05-06T16:23:45.395Z,1.30
2018-05-06T16:26:11.780Z,1.33
2018-05-06T16:28:38.122Z,1.50
2018-05-06T16:31:05.345Z,1.10
2018-05-06T16:33:31.769Z,1.37
2018-05-06T16:35:58.181Z,0.80
2018-05-06T16:38:24.505Z,1.30
2018-05-06T16:40:50.895Z,1.27
2018-05-06T16:43:18.004Z,1.13
2018-05-06T16:45:44.358Z,1.10
2018-05-06T16:48:10.715Z,1.30
2018-05-06T16:50:37.162Z,1.30
2018-05-06T16:53:03.571Z,1.10
2018-05-06T16:55:30.715Z,1.40
2018-05-06T16:57:57.314Z,0.93
2018-05-06T17:00:23.790Z,0.80
2018-05-06T17:02:50.153Z,1.17
2018-05-06T17:05:16.693Z,1.30
2018-05-06T17:07:43.853Z,1.30
2018-05-06T17:10:10.385Z,1.60
2018-05-06T17:12:37.493Z,1.90
2018-05-06T17:15:03.940Z,1.77
2018-05-06T17:17:30.309Z,1.50
2018-05-06T17:19:56.756Z,1.20
2018-05-06T17:22:23.224Z,1.00
2018-05-06T17:24:49.585Z,1.67
2018-05-06T17:27:16.752Z,0.83
2018-05-06T17:29:43.173Z,0.90
2018-05-06T17:32:10.273Z,1.03
2018-05-06T17:34:36.734Z,0.93
2018-05-06T17:37:03.226Z,1.10
2018-05-06T17:39:29.597Z,1.17
2018-05-06T17:41:56.273Z,1.07
2018-05-06T17:44:36.120Z,1.20
2018-05-06T17:47:04.441Z,1.33
2018-05-06T17:49:31.090Z,1.10
2018-05-06T17:51:57.478Z,1.37
2018-05-06T17:54:23.952Z,1.37
2018-05-06T17:56:50.379Z,0.87
2018-05-06T17:59:16.855Z,1.03
2018-05-06T18:01:44.291Z,1.03
2018-05-06T18:04:10.646Z,1.30
2018-05-06T18:06:37.133Z,1.20
2018-05-06T18:09:03.502Z,0.90
2018-05-06T18:11:30.103Z,1.40
2018-05-06T18:13:56.502Z,1.47
2018-05-06T18:16:23.662Z,1.33
2018-05-06T18:18:50.162Z,1.80
2018-05-06T18:21:16.529Z,1.40
2018-05-06T18:23:43.071Z,1.10
2018-05-06T18:26:09.533Z,1.47
2018-05-06T18:28:38.083Z,1.43
2018-05-06T18:31:04.630Z,1.20
2018-05-06T18:33:31.304Z,1.20
2018-05-06T18:35:59.500Z,1.20
2018-05-06T18:38:26.216Z,1.20
2018-05-06T18:40:52.664Z,0.93
2018-05-06T18:43:19.147Z,1.00
2018-05-06T18:45:45.638Z,1.40
2018-05-06T18:48:12.042Z,2.20
2018-05-06T18:50:38.521Z,2.70
2018-05-06T18:53:04.960Z,1.40
2018-05-06T18:55:31.430Z,1.40
2018-05-06T18:57:58.160Z,1.30
2018-05-06T19:00:24.756Z,1.07
2018-05-06T19:02:51.159Z,1.07
2018-05-06T19:05:17.553Z,1.13
2018-05-06T19:07:44.747Z,0.80
2018-05-06T19:10:11.218Z,1.00
2018-05-06T19:12:38.418Z,1.00
2018-05-06T19:15:04.853Z,0.80
2018-05-06T19:17:31.278Z,1.10
2018-05-06T19:19:58.351Z,0.80
2018-05-06T19:22:25.877Z,1.10
2018-05-06T19:24:52.339Z,0.70
2018-05-06T19:27:18.788Z,1.30
2018-05-06T19:29:45.176Z,0.77
2018-05-06T19:32:11.664Z,1.13
2018-05-06T19:34:38.003Z,1.20
2018-05-06T19:37:04.387Z,0.90
2018-05-06T19:39:31.473Z,1.00
2018-05-06T19:41:57.911Z,1.03
2018-05-06T19:44:24.308Z,0.60
2018-05-06T19:46:50.747Z,0.77
2018-05-06T19:49:17.175Z,0.90
2018-05-06T19:51:43.555Z,0.90
2018-05-06T19:54:09.922Z,1.00
2018-05-06T19:56:37.233Z,1.30
2018-05-06T19:59:03.638Z,1.20
2018-05-06T20:01:30.825Z,1.30
2018-05-06T20:03:57.490Z,0.90
2018-05-06T20:06:24.100Z,1.20
2018-05-06T20:08:50.579Z,1.20
2018-05-06T20:11:17.807Z,1.37
2018-05-06T20:13:44.998Z,1.30
2018-05-06T20:16:11.370Z,1.03
2018-05-06T20:18:37.745Z,1.00
2018-05-06T20:21:04.137Z,1.03
2018-05-06T20:23:30.679Z,1.03
2018-05-06T20:25:57.058Z,1.03
2018-05-06T20:28:24.157Z,0.93
2018-05-06T20:30:50.681Z,1.40
2018-05-06T20:33:17.017Z,1.10
2018-05-06T20:35:43.437Z,1.10
2018-05-06T20:38:10.598Z,1.20
2018-05-06T20:40:37.216Z,0.90
2018-05-06T20:43:03.666Z,1.00
2018-05-06T20:45:30.153Z,1.10
2018-05-06T20:47:56.954Z,1.10
2018-05-06T20:50:23.289Z,1.27
2018-05-06T20:52:49.671Z,0.90
2018-05-06T20:55:16.836Z,1.10
2018-05-06T20:57:43.230Z,1.13
2018-05-06T21:00:09.708Z,1.00
2018-05-06T21:02:36.786Z,1.40
2018-05-06T21:05:03.144Z,1.20
2018-05-06T21:07:29.640Z,1.20
2018-05-06T21:09:56.031Z,1.40
2018-05-06T21:12:23.368Z,1.23
2018-05-06T21:14:49.705Z,1.10
2018-05-06T21:17:16.172Z,1.47
2018-05-06T21:19:43.476Z,1.00
2018-05-06T21:22:10.848Z,1.10
2018-05-06T21:24:37.229Z,0.70
2018-05-06T21:27:03.553Z,0.90
2018-05-06T21:29:30.635Z,0.90
2018-05-06T21:31:56.990Z,1.20
2018-05-06T21:34:23.440Z,1.20
2018-05-06T21:36:49.878Z,1.20
2018-05-06T21:39:16.891Z,1.17
2018-05-06T21:41:43.260Z,1.17
2018-05-06T21:44:09.565Z,1.00
2018-05-06T21:46:35.854Z,0.90
2018-05-06T21:49:02.937Z,0.87
2018-05-06T21:51:29.336Z,0.70
2018-05-06T21:53:55.709Z,1.27
2018-05-06T21:56:22.054Z,1.30
2018-05-06T21:58:48.385Z,0.80
2018-05-06T22:01:19.590Z,0.80
2018-05-06T22:03:45.981Z,1.07
2018-05-06T22:06:12.290Z,1.00
2018-05-06T22:08:38.618Z,1.30
2018-05-06T22:11:04.958Z,1.57
2018-05-06T22:13:31.301Z,1.30
2018-05-06T22:15:58.058Z,1.40
2018-05-06T22:18:25.144Z,0.80
2018-05-06T22:20:51.527Z,1.37
2018-05-06T22:23:18.667Z,1.30
2018-05-06T22:25:45.137Z,1.23
2018-05-06T22:28:12.206Z,0.87
2018-05-06T22:30:38.631Z,1.17
2018-05-06T22:33:06.558Z,1.40
2018-05-06T22:35:32.917Z,0.90
2018-05-06T22:37:59.375Z,1.10
2018-05-06T22:40:25.736Z,1.07
2018-05-06T22:42:52.087Z,1.40
2018-05-06T22:45:18.564Z,1.00
2018-05-06T22:47:45.684Z,1.30
2018-05-06T22:50:12.124Z,1.30
2018-05-06T22:52:38.637Z,1.10
2018-05-06T22:55:05.028Z,0.90
2018-05-06T22:57:31.373Z,1.23
2018-05-06T22:59:57.703Z,0.90
2018-05-06T23:02:24.077Z,1.10
2018-05-06T23:04:50.389Z,1.10
2018-05-06T23:07:16.729Z,0.97
2018-05-06T23:09:43.084Z,1.10
2018-05-06T23:12:10.230Z,1.20
2018-05-06T23:14:38.408Z,1.00
2018-05-06T23:17:04.808Z,1.20
2018-05-06T23:19:31.131Z,1.03
2018-05-06T23:21:57.484Z,1.37
2018-05-06T23:24:23.838Z,0.77
2018-05-06T23:26:50.143Z,1.10
2018-05-06T23:29:16.521Z,1.10
2018-05-06T23:31:42.797Z,0.80
2018-05-06T23:34:09.313Z,1.07
2018-05-06T23:36:35.636Z,1.07
2018-05-06T23:39:02.725Z,1.27
2018-05-06T23:41:29.037Z,1.00
2018-05-06T23:43:55.351Z,1.10
2018-05-06T23:46:21.661Z,1.10
2018-05-06T23:48:48.728Z,1.30
2018-05-06T23:51:15.761Z,1.30
2018-05-06T23:53:42.847Z,1.27
2018-05-06T23:56:09.209Z,1.60
2018-05-06T23:58:35.563Z,1.27
